Aeroporto :
LOGIN :

Iscrizione | Disclaimer

   EN    FR    IT 

 










Sommario :    VFR   VFR Marginale   IFR   IFR Intensivo   IFR Molto Intensivo
Visibilità : 
Base nubi : 
>= 8 km
>= 3000ft
5 / 8 km
1000 / 3000 ft
1500m / 5 km
500 / 1000 ft
800 / 1500m
200 / 500 ft
< 800m
< 200 ft
Simboli :   Temporali  Nebbia  Neve Forte  Precipitazioni Forti  Vento > 20 kt
SIGMETs :   Varie  Temporali  Ghiacco  Turbolenza  Onda orograficha  Ceneri Vulcaniche






- Altitudine del aeroporto : 1325 ft
- Codice IATA : EBU


LFMH - St-Etienne Boutheon

ULTIMO METAR :
  • 132330Z AUTO VRB02KT 9999 BKN049 BKN092 18/17 Q1017

METARs OBSOLETI :
  • 132300Z AUTO 16003KT CAVOK 18/17 Q1017
  • 132230Z AUTO 16003KT CAVOK 18/17 Q1017
  • 132200Z AUTO 21003KT 180V240 CAVOK 19/17 Q1018
  • 132130Z AUTO 17003KT 140V210 CAVOK 18/17 Q1017
  • 132100Z AUTO VRB02KT CAVOK 18/17 Q1017

TAF TAF LFMH
Valido dal 13 a 15 ore il 14 a 15 ore UTC


131400Z 1315/1415 VRB02KT CAVOK
TEMPO 1315/1320 VRB15KT SHRA SCT060TCU
PROB40
TEMPO 1315/1320 VRB15G35KT 4000 TSRA BKN050CB
PROB30
TEMPO 1315/1317 TSGR
BECMG 1401/1405 BKN035
BECMG 1408/1411 34005KT SCT040
ATIS : +33 4 77 36 17 51



MetMap, La meteo Aeronautica in un colpo d'occhio ! - Copyright ORBIFLY Dicembre 2007 - Disclaimer

ORBIFLY MET'MAP TEAM :

Programmazione e sviluppo : Alexandra Zaïnal
Concezione : Baudouin d'Aumeries
Aiuto per la programmazione : Marc-Olivier Méhu
Supporto tecnico e logistico : Manuel Goepfert
Aiuto per la traduzione : Arnaldo La Scala

Contatto : metmap@orbifly.com




FONTI E CREDITI :

   NOAA